Thunder radar more information blitzortung!


avis per Pluja more information rain snow radar


Visita la nostra xarxa de llocs de meteo:

Template documentation
and downloads

And another site



Rain From: 15-11-2018 00:00 Until: 23:59 warning for: Rain Level: Yellow info button

Pagina Historial Weather Underground text

Diari Resum Octubre 28, 2017 Unitats:  Imperial    Mètric   Tant
« Previous Dia
SegĂźent Dia »
Diari Setmana Mensual Anual Personalitzada
  Maxima: Minima: Media:
Temperatura: TemperatureC °F 11.9 °F 17.4 °F
Punt de rosada: DewpointC °F 8.4 °F 10.6 °F
Humitat: Humidity % 50 % 65 %
Wind Speed: WindSpeedKMH mph 0.0 mph 4.6 mph
RĂ fegues de vent: WindSpeedGustKMH mph - -
Vent:- - SSE
Pression baro: PressurehPa in 1020.9 in -
Precipitacions: 0.0 in    
Historical Graphs
 
 
Dades de taula per Octubre 28, 2017
Temps Temperatura Punt de rosada Pression baro Vent Wind Speed RĂ fegues de vent Humitat Rainfall Rate (Hourly)
TemperatureC °F DewpointC °F PressurehPa in Calm     Humidity % HourlyPrecipMM in
00:00 13.8 °F 9.8 °F 1023.9 in Calm   3.2 mph 77 % 0.0 in
00:03 16.6 °F 14.1 °F 1023.9 in Calm     85 % 0.0 in
00:08 16.5 °F 13.9 °F 1023.9 in ESE 2.6 mph 2.6 mph 85 % 0.0 in
00:10 13.7 °F 9.7 °F 1023.9 in WNW 1.6 mph 1.6 mph 77 % 0.0 in
00:13 16.4 °F 13.9 °F 1023.9 in NE 2.6 mph 2.6 mph 85 % 0.0 in
00:18 16.3 °F 13.8 °F 1023.9 in ENE 2.6 mph 2.6 mph 85 % 0.0 in
00:20 13.5 °F 9.7 °F 1023.9 in NW 1.6 mph 3.2 mph 78 % 0.0 in
00:23 16.3 °F 13.9 °F 1023.9 in NE 1.9 mph   86 % 0.0 in
00:28 16.3 °F 13.8 °F 1023.9 in WSW 3.7 mph 3.7 mph 85 % 0.0 in
00:30 13.5 °F 9.6 °F 1023.9 in NW 3.2 mph 4.8 mph 77 % 0.0 in
00:33 16.3 °F 13.9 °F 1023.9 in Calm     86 % 0.0 in
00:38 16.3 °F 13.9 °F 1023.9 in Calm     86 % 0.0 in
00:40 13.5 °F 9.6 °F 1023.9 in NW 3.2 mph 6.4 mph 77 % 0.0 in
00:43 16.4 °F 14.2 °F 1023.9 in Calm     87 % 0.0 in
00:50 13.4 °F 9.4 °F 1023.9 in NNW 1.6 mph 4.8 mph 77 % 0.0 in
01:00 13.5 °F 9.6 °F 1023.9 in NNE 1.6 mph 3.2 mph 77 % 0.0 in
01:10 13.3 °F 9.3 °F 1023.9 in NNW 1.6 mph 3.2 mph 77 % 0.0 in
01:20 13.1 °F 9.2 °F 1023.9 in WSW 3.2 mph 3.2 mph 77 % 0.0 in
01:30 13.1 °F 9.2 °F 1023.9 in WSW 1.6 mph 3.2 mph 77 % 0.0 in
01:40 13.0 °F 9.3 °F 1023.9 in WNW 1.6 mph 6.4 mph 78 % 0.0 in
01:50 13.1 °F 9.2 °F 1023.9 in NNE 1.6 mph 4.8 mph 77 % 0.0 in
02:00 13.1 °F 9.2 °F 1023.9 in NNE 1.6 mph 3.2 mph 77 % 0.0 in
02:10 13.0 °F 9.1 °F 1023.9 in North 1.6 mph 3.2 mph 77 % 0.0 in
02:20 12.7 °F 8.9 °F 1024.9 in North 1.6 mph 3.2 mph 78 % 0.0 in
02:30 12.5 °F 8.8 °F 1023.9 in NE 3.2 mph 3.2 mph 78 % 0.0 in
02:40 12.4 °F 8.7 °F 1023.9 in NNE 1.6 mph 4.8 mph 78 % 0.0 in
02:50 12.3 °F 8.6 °F 1023.9 in North 1.6 mph 3.2 mph 78 % 0.0 in
03:00 12.1 °F 8.6 °F 1024.9 in NNE 1.6 mph 4.8 mph 79 % 0.0 in
03:10 12.0 °F 8.4 °F 1024.9 in North 1.6 mph 1.6 mph 79 % 0.0 in
03:20 11.9 °F 8.4 °F 1024.9 in Calm   1.6 mph 79 % 0.0 in
03:30 11.9 °F 8.6 °F 1026.0 in Calm   3.2 mph 80 % 0.0 in
03:40 11.9 °F 8.4 °F 1026.0 in North 1.6 mph 3.2 mph 79 % 0.0 in
03:50 12.1 °F 8.6 °F 1026.0 in NNW 3.2 mph 4.8 mph 79 % 0.0 in
04:00 12.0 °F 8.7 °F 1026.0 in Calm   3.2 mph 80 % 0.0 in
04:10 12.5 °F 8.9 °F 1026.0 in WNW 3.2 mph 3.2 mph 79 % 0.0 in
04:20 12.6 °F 9.1 °F 1026.0 in WNW 1.6 mph 3.2 mph 79 % 0.0 in
04:30 13.2 °F 9.6 °F 1026.0 in West 1.6 mph 3.2 mph 79 % 0.0 in
04:40 13.9 °F 10.1 °F 1026.0 in NNW 3.2 mph 6.4 mph 78 % 0.0 in
04:50 14.5 °F 10.5 °F 1026.0 in NNE 1.6 mph 4.8 mph 77 % 0.0 in
05:00 14.3 °F 10.1 °F 1026.0 in NNE 4.8 mph 4.8 mph 76 % 0.0 in
05:10 14.3 °F 10.1 °F 1026.0 in NNE 3.2 mph 6.4 mph 76 % 0.0 in
05:20 14.9 °F 10.7 °F 1024.9 in NE 3.2 mph 4.8 mph 76 % 0.0 in
05:30 15.0 °F 10.6 °F 1024.9 in NNE 3.2 mph 6.4 mph 75 % 0.0 in
10:36 15.2 °F 10.6 °F 1024.9 in North 7.4 mph 7.4 mph 74 % 0.0 in
10:37 15.2 °F 10.6 °F 1024.9 in North 7.4 mph 7.4 mph 74 % 0.0 in
10:38 15.3 °F 10.7 °F 1024.9 in NNE 3.7 mph 3.7 mph 74 % 0.0 in
10:43 15.8 °F 11.2 °F 1026.0 in ENE 3.7 mph 3.7 mph 74 % 0.0 in
10:48 15.8 °F 10.9 °F 1026.0 in NE 6.1 mph 6.1 mph 73 % 0.0 in
10:53 15.8 °F 10.9 °F 1026.0 in NE 5.6 mph 5.6 mph 73 % 0.0 in
10:58 16.2 °F 11.2 °F 1024.9 in NNE 9.0 mph 9.0 mph 72 % 0.0 in
11:03 15.8 °F 10.6 °F 1024.9 in NNE 7.4 mph 7.4 mph 71 % 0.0 in
11:08 16.1 °F 11.1 °F 1024.9 in NE 5.6 mph 5.6 mph 72 % 0.0 in
11:13 16.2 °F 11.2 °F 1026.0 in ENE 7.2 mph 7.2 mph 72 % 0.0 in
11:14 16.3 °F 11.1 °F 1026.0 in NE 7.4 mph 7.4 mph 71 % 0.0 in
11:19 16.4 °F 11.1 °F 1026.0 in ENE 9.3 mph 9.3 mph 71 % 0.0 in
11:24 16.4 °F 10.9 °F 1026.0 in ENE 9.3 mph 9.3 mph 70 % 0.0 in
11:29 16.4 °F 10.9 °F 1026.0 in NNE 10.3 mph 10.3 mph 70 % 0.0 in
11:34 16.3 °F 10.8 °F 1026.0 in ENE 9.3 mph 9.3 mph 70 % 0.0 in
11:39 16.5 °F 11.0 °F 1026.0 in ENE 5.6 mph 5.6 mph 70 % 0.0 in
11:44 16.6 °F 11.1 °F 1026.0 in East 9.3 mph 9.3 mph 70 % 0.0 in
11:49 16.7 °F 11.0 °F 1026.0 in NNE 7.4 mph 7.4 mph 69 % 0.0 in
11:54 17.1 °F 11.4 °F 1026.0 in North 5.6 mph 5.6 mph 69 % 0.0 in
11:59 17.3 °F 11.3 °F 1026.0 in NNE 6.1 mph 6.1 mph 68 % 0.0 in
12:04 17.2 °F 11.2 °F 1026.0 in NNE 9.3 mph 9.3 mph 68 % 0.0 in
12:09 17.2 °F 11.0 °F 1026.0 in North 7.4 mph 7.4 mph 67 % 0.0 in
12:14 17.4 °F 11.2 °F 1026.0 in NNE 7.4 mph 7.4 mph 67 % 0.0 in
12:19 17.4 °F 11.2 °F 1026.0 in NNE 11.1 mph 11.1 mph 67 % 0.0 in
12:24 17.7 °F 11.5 °F 1026.0 in NNW 5.0 mph 5.0 mph 67 % 0.0 in
12:29 17.8 °F 11.6 °F 1026.0 in NE 7.4 mph 7.4 mph 67 % 0.0 in
12:34 17.8 °F 11.3 °F 1026.0 in ENE 9.3 mph 9.3 mph 66 % 0.0 in
12:39 17.8 °F 11.3 °F 1026.0 in NNE 7.4 mph 7.4 mph 66 % 0.0 in
12:44 18.0 °F 11.6 °F 1026.0 in NNE 7.4 mph 7.4 mph 66 % 0.0 in
12:49 18.1 °F 11.4 °F 1026.0 in NE 5.6 mph 5.6 mph 65 % 0.0 in
12:54 18.3 °F 11.6 °F 1024.9 in North 5.6 mph 5.6 mph 65 % 0.0 in
12:59 18.7 °F 12.0 °F 1024.9 in ENE 7.4 mph 7.4 mph 65 % 0.0 in
13:04 18.5 °F 11.6 °F 1024.9 in NNE 7.4 mph 7.4 mph 64 % 0.0 in
13:09 18.6 °F 11.7 °F 1024.9 in ENE 7.4 mph 7.4 mph 64 % 0.0 in
13:10 18.6 °F 11.7 °F 1024.9 in ENE 7.4 mph 7.4 mph 64 % 0.0 in
13:15 19.0 °F 11.8 °F 1024.9 in ENE 7.4 mph 7.4 mph 63 % 0.0 in
13:20 19.2 °F 12.0 °F 1024.9 in North 5.6 mph 5.6 mph 63 % 0.0 in
13:25 19.1 °F 11.7 °F 1024.9 in NE 7.4 mph 7.4 mph 62 % 0.0 in
13:30 19.2 °F 11.5 °F 1024.9 in NE 4.2 mph 4.2 mph 61 % 0.0 in
13:35 19.3 °F 11.6 °F 1024.9 in NE 7.4 mph 7.4 mph 61 % 0.0 in
13:40 19.5 °F 12.0 °F 1023.9 in NNE 5.6 mph 5.6 mph 62 % 0.0 in
13:45 19.5 °F 11.8 °F 1023.9 in NE 5.6 mph 5.6 mph 61 % 0.0 in
13:50 19.6 °F 11.6 °F 1023.9 in ENE 4.7 mph 4.7 mph 60 % 0.0 in
13:55 19.7 °F 11.9 °F 1023.9 in NNE 4.7 mph 4.7 mph 61 % 0.0 in
14:00 19.9 °F 12.2 °F 1023.9 in NNE 7.4 mph 7.4 mph 61 % 0.0 in
14:05 20.1 °F 12.1 °F 1023.9 in NNE 3.2 mph 3.2 mph 60 % 0.0 in
14:10 19.9 °F 11.9 °F 1023.9 in ESE 3.7 mph 3.7 mph 60 % 0.0 in
14:15 20.1 °F 11.3 °F 1023.9 in NE 5.6 mph 5.6 mph 57 % 0.0 in
14:20 20.2 °F 11.4 °F 1023.9 in ESE 5.6 mph 6.1 mph 57 % 0.0 in
14:25 20.4 °F 11.6 °F 1023.9 in SSE 5.6 mph 5.6 mph 57 % 0.0 in
14:30 20.7 °F 11.9 °F 1023.9 in NNW 3.5 mph 3.5 mph 57 % 0.0 in
14:35 20.7 °F 11.9 °F 1023.9 in NNE 2.6 mph   57 % 0.0 in
14:40 20.8 °F 11.9 °F 1023.9 in West 2.3 mph 2.3 mph 57 % 0.0 in
14:45 20.9 °F 12.3 °F 1023.9 in NW 5.6 mph 5.6 mph 58 % 0.0 in
14:50 21.0 °F 11.6 °F 1023.9 in WSW 3.7 mph 3.7 mph 55 % 0.0 in
14:55 21.2 °F 12.1 °F 1022.9 in SW 1.9 mph   56 % 0.0 in
15:00 21.6 °F 12.2 °F 1022.9 in South 7.9 mph 7.9 mph 55 % 0.0 in
15:05 21.5 °F 11.5 °F 1022.9 in South 3.7 mph 3.7 mph 53 % 0.0 in
15:10 21.7 °F 12.3 °F 1022.9 in South 9.3 mph 9.3 mph 55 % 0.0 in
15:15 21.9 °F 11.6 °F 1022.9 in SSE 9.3 mph 9.3 mph 52 % 0.0 in
15:20 21.5 °F 11.2 °F 1022.9 in SW 3.7 mph 3.7 mph 52 % 0.0 in
15:25 21.9 °F 11.9 °F 1022.9 in ESE 5.6 mph 5.6 mph 53 % 0.0 in
15:30 22.2 °F 12.2 °F 1022.9 in West 5.6 mph 5.6 mph 53 % 0.0 in
15:35 22.0 °F 11.7 °F 1022.9 in East 3.9 mph 3.9 mph 52 % 0.0 in
15:40 22.1 °F 12.1 °F 1022.9 in South 3.7 mph 3.7 mph 53 % 0.0 in
15:45 22.2 °F 12.2 °F 1022.9 in SW 5.6 mph 5.6 mph 53 % 0.0 in
15:50 22.2 °F 11.9 °F 1022.9 in ESE 5.6 mph 5.6 mph 52 % 0.0 in
15:55 22.3 °F 11.9 °F 1022.9 in SW 6.1 mph 6.1 mph 52 % 0.0 in
16:00 22.4 °F 12.1 °F 1022.9 in WSW 4.2 mph 4.2 mph 52 % 0.0 in
16:05 21.9 °F 11.0 °F 1022.9 in ESE 5.6 mph 5.6 mph 50 % 0.0 in
16:10 21.7 °F 11.1 °F 1022.9 in ENE 5.6 mph 5.6 mph 51 % 0.0 in
16:15 21.8 °F 11.2 °F 1022.9 in ESE 9.5 mph 9.5 mph 51 % 0.0 in
16:20 21.8 °F 11.2 °F 1022.9 in NE 1.9 mph 1.9 mph 51 % 0.0 in
16:25 22.5 °F 11.8 °F 1022.9 in South 6.4 mph   51 % 0.0 in
16:30 22.7 °F 12.3 °F 1022.9 in SW 5.6 mph 5.6 mph 52 % 0.0 in
16:35 22.8 °F 12.1 °F 1022.9 in SSE 3.7 mph   51 % 0.0 in
16:40 22.3 °F 11.4 °F 1021.9 in East 3.7 mph 3.7 mph 50 % 0.0 in
16:45 22.0 °F 11.1 °F 1021.9 in SE 5.6 mph 5.6 mph 50 % 0.0 in
16:50 22.2 °F 11.9 °F 1021.9 in WSW 5.6 mph 5.6 mph 52 % 0.0 in
16:55 22.6 °F 11.9 °F 1021.9 in SSW 5.6 mph 5.6 mph 51 % 0.0 in
17:00 22.9 °F 12.5 °F 1021.9 in SSE 4.7 mph 4.7 mph 52 % 0.0 in
17:05 22.2 °F 11.3 °F 1021.9 in ESE 5.6 mph 5.6 mph 50 % 0.0 in
17:10 21.8 °F 11.2 °F 1021.9 in East 9.3 mph 9.3 mph 51 % 0.0 in
17:15 21.6 °F 11.3 °F 1021.9 in East 9.3 mph 9.3 mph 52 % 0.0 in
17:20 21.3 °F 11.3 °F 1021.9 in ESE 7.4 mph 7.4 mph 53 % 0.0 in
17:25 21.2 °F 11.2 °F 1021.9 in ESE 9.3 mph 9.3 mph 53 % 0.0 in
17:30 21.3 °F 11.9 °F 1021.9 in SSW 5.6 mph 5.6 mph 55 % 0.0 in
17:35 21.2 °F 12.1 °F 1021.9 in ESE 5.6 mph 5.6 mph 56 % 0.0 in
17:40 21.2 °F 11.5 °F 1021.9 in ESE 11.1 mph 11.1 mph 54 % 0.0 in
17:45 21.6 °F 11.9 °F 1021.9 in SW 7.4 mph 7.4 mph 54 % 0.0 in
17:50 21.5 °F 11.5 °F 1021.9 in South 13.0 mph 13.0 mph 53 % 0.0 in
17:55 21.4 °F 11.4 °F 1022.9 in SW 7.9 mph 7.9 mph 53 % 0.0 in
18:00 21.4 °F 11.4 °F 1022.9 in SW 5.6 mph 5.6 mph 53 % 0.0 in
18:05 21.3 °F 11.3 °F 1022.9 in WSW 3.7 mph 3.7 mph 53 % 0.0 in
18:10 21.2 °F 11.2 °F 1022.9 in WSW 7.4 mph 7.4 mph 53 % 0.0 in
18:15 21.1 °F 11.2 °F 1022.9 in WSW 3.9 mph 3.9 mph 53 % 0.0 in
18:20 21.0 °F 11.1 °F 1022.9 in WSW 3.7 mph 3.7 mph 53 % 0.0 in
18:25 20.8 °F 11.2 °F 1021.9 in West 7.4 mph 7.4 mph 54 % 0.0 in
18:30 20.5 °F 10.9 °F 1021.9 in SW 7.4 mph 7.4 mph 54 % 0.0 in
18:35 20.2 °F 10.6 °F 1021.9 in SW 4.2 mph 4.2 mph 54 % 0.0 in
18:40 20.0 °F 10.7 °F 1021.9 in WSW 3.7 mph 3.9 mph 55 % 0.0 in
18:45 19.7 °F 10.4 °F 1021.9 in WSW 3.7 mph 3.7 mph 55 % 0.0 in
18:50 19.4 °F 10.4 °F 1021.9 in SW 3.7 mph 3.7 mph 56 % 0.0 in
18:55 19.2 °F 10.2 °F 1021.9 in SW 4.2 mph 4.2 mph 56 % 0.0 in
19:00 18.9 °F 10.2 °F 1021.9 in West 5.6 mph 5.6 mph 57 % 0.0 in
19:05 18.7 °F 10.0 °F 1021.9 in SW 3.9 mph 3.9 mph 57 % 0.0 in
19:10 18.5 °F 9.8 °F 1022.9 in SW 3.7 mph 3.7 mph 57 % 0.0 in
19:15 18.4 °F 9.7 °F 1022.9 in WSW 3.7 mph 3.9 mph 57 % 0.0 in
19:20 18.2 °F 9.8 °F 1022.9 in WSW 5.6 mph 5.6 mph 58 % 0.0 in
19:25 18.1 °F 9.7 °F 1022.9 in SW 3.9 mph 3.9 mph 58 % 0.0 in
19:30 17.9 °F 9.5 °F 1022.9 in SW 5.6 mph 5.6 mph 58 % 0.0 in
19:35 17.8 °F 9.4 °F 1022.9 in WSW 3.9 mph 3.9 mph 58 % 0.0 in
19:40 17.7 °F 9.6 °F 1022.9 in SW 4.2 mph 4.2 mph 59 % 0.0 in
19:45 17.7 °F 9.6 °F 1022.9 in SW 4.2 mph 4.2 mph 59 % 0.0 in
19:50 17.6 °F 9.5 °F 1022.9 in WSW 3.7 mph 3.7 mph 59 % 0.0 in
19:55 17.5 °F 9.7 °F 1022.9 in WSW 3.7 mph 3.7 mph 60 % 0.0 in
20:00 17.4 °F 9.6 °F 1022.9 in West 3.7 mph 3.7 mph 60 % 0.0 in
20:05 17.3 °F 9.4 °F 1022.9 in WSW 3.7 mph 3.9 mph 60 % 0.0 in
20:10 17.3 °F 9.7 °F 1022.9 in WSW 4.2 mph 4.2 mph 61 % 0.0 in
20:15 17.1 °F 9.5 °F 1022.9 in WSW 3.9 mph 3.9 mph 61 % 0.0 in
20:20 17.0 °F 9.4 °F 1022.9 in SW 5.6 mph 5.6 mph 61 % 0.0 in
20:25 17.0 °F 9.7 °F 1022.9 in West 3.7 mph 3.7 mph 62 % 0.0 in
20:30 17.0 °F 9.7 °F 1022.9 in SW 3.7 mph 3.7 mph 62 % 0.0 in
20:35 16.9 °F 9.8 °F 1022.9 in WSW 3.7 mph 3.7 mph 63 % 0.0 in
20:40 16.8 °F 9.9 °F 1022.9 in SW 4.7 mph 4.7 mph 64 % 0.0 in
20:45 16.8 °F 9.9 °F 1022.9 in SW 9.3 mph 9.3 mph 64 % 0.0 in
20:50 16.8 °F 10.2 °F 1022.9 in SW 3.7 mph 3.7 mph 65 % 0.0 in
20:55 16.7 °F 10.1 °F 1022.9 in WSW 4.7 mph 4.7 mph 65 % 0.0 in
21:00 16.6 °F 10.0 °F 1022.9 in SW 3.9 mph 3.9 mph 65 % 0.0 in
21:05 16.6 °F 10.2 °F 1022.9 in WSW 3.7 mph 3.7 mph 66 % 0.0 in
21:10 16.5 °F 10.1 °F 1022.9 in WSW 3.9 mph 3.9 mph 66 % 0.0 in
21:15 16.5 °F 10.3 °F 1022.9 in West 3.7 mph 3.7 mph 67 % 0.0 in
21:20 16.5 °F 10.3 °F 1022.9 in WSW 3.9 mph 3.9 mph 67 % 0.0 in
21:25 16.5 °F 10.3 °F 1021.9 in WSW 3.7 mph 3.7 mph 67 % 0.0 in
21:30 16.4 °F 10.5 °F 1021.9 in WSW 1.9 mph 2.3 mph 68 % 0.0 in
21:35 16.3 °F 10.4 °F 1021.9 in SW 3.7 mph 3.7 mph 68 % 0.0 in
21:40 16.2 °F 10.3 °F 1022.9 in SW 3.7 mph 3.7 mph 68 % 0.0 in
21:45 16.0 °F 10.3 °F 1022.9 in SW 3.7 mph 3.7 mph 69 % 0.0 in
21:50 16.0 °F 10.3 °F 1022.9 in SW 3.7 mph 3.7 mph 69 % 0.0 in
21:55 15.9 °F 10.2 °F 1021.9 in SW 3.7 mph 3.7 mph 69 % 0.0 in
22:00 15.9 °F 10.2 °F 1021.9 in SW 3.7 mph 3.7 mph 69 % 0.0 in
22:05 15.8 °F 10.1 °F 1021.9 in SW 3.7 mph 3.7 mph 69 % 0.0 in
22:10 15.7 °F 10.0 °F 1022.9 in WSW 3.7 mph 3.7 mph 69 % 0.0 in
22:15 15.6 °F 9.9 °F 1022.9 in WSW 3.7 mph 3.7 mph 69 % 0.0 in
22:20 15.5 °F 10.1 °F 1022.9 in Calm     70 % 0.0 in
22:25 15.4 °F 9.9 °F 1022.9 in SW 3.7 mph 3.7 mph 70 % 0.0 in
22:30 15.2 °F 9.8 °F 1022.9 in WSW 3.7 mph 3.7 mph 70 % 0.0 in
22:35 15.0 °F 9.6 °F 1022.9 in WSW 2.6 mph 2.6 mph 70 % 0.0 in
22:40 15.1 °F 9.7 °F 1021.9 in WSW 1.9 mph 1.9 mph 70 % 0.0 in
22:45 15.2 °F 9.8 °F 1021.9 in WSW 3.7 mph 3.7 mph 70 % 0.0 in
22:50 15.3 °F 9.8 °F 1021.9 in West 3.7 mph 3.7 mph 70 % 0.0 in
22:55 15.4 °F 9.9 °F 1020.9 in WSW 1.9 mph 1.9 mph 70 % 0.0 in
23:00 15.3 °F 9.8 °F 1020.9 in Calm     70 % 0.0 in
23:05 15.3 °F 9.7 °F 1020.9 in West 7.4 mph 7.4 mph 69 % 0.0 in
23:10 15.3 °F 9.4 °F 1021.9 in WSW 4.2 mph 4.2 mph 68 % 0.0 in
23:15 15.0 °F 9.1 °F 1021.9 in SSW 3.7 mph 3.7 mph 68 % 0.0 in
23:20 14.8 °F 8.9 °F 1021.9 in SW 3.7 mph 3.7 mph 68 % 0.0 in
23:25 14.6 °F 8.8 °F 1021.9 in SW 3.7 mph 3.7 mph 68 % 0.0 in
23:30 14.5 °F 8.7 °F 1021.9 in SW 2.3 mph 2.3 mph 68 % 0.0 in
23:35 14.4 °F 8.6 °F 1021.9 in SW 3.5 mph 3.5 mph 68 % 0.0 in
23:40 14.3 °F 8.4 °F 1021.9 in WSW 1.9 mph 1.9 mph 68 % 0.0 in
23:45 14.2 °F 8.4 °F 1021.9 in Calm     68 % 0.0 in
23:50 14.0 °F 8.4 °F 1021.9 in ENE 1.9 mph 1.9 mph 69 % 0.0 in
23:55 13.9 °F 8.5 °F 1021.9 in ENE 3.7 mph 3.7 mph 70 % 0.0 in
Meteo Sesrovires
Elogis d' Weather Underground - 2.25 mb

Guio original per  Jim McMurry - jmcmurry@mwt.net Adaptat per a la plantilla per  Wim van der Kuil - Leuven-Template.eu

Trobareu la nostra informacio del temps tambe a:

Weather Underground

AWEKAS